createdAt,value
2022-10-23T00:14:26.192Z,182
2022-10-23T00:44:24.858Z,175
2022-10-23T01:14:25.049Z,171
2022-10-23T01:44:20.165Z,168
2022-10-23T02:14:21.646Z,161
2022-10-23T02:44:20.400Z,157
2022-10-23T03:14:17.009Z,153
2022-10-23T03:44:17.485Z,150
2022-10-23T04:14:16.561Z,145
2022-10-23T04:44:16.562Z,139
2022-10-23T05:14:17.468Z,137
2022-10-23T05:44:18.716Z,131
2022-10-23T06:14:21.923Z,128
2022-10-23T06:44:21.560Z,126
2022-10-23T07:14:24.094Z,119
2022-10-23T07:44:25.073Z,122
2022-10-23T08:14:26.682Z,127
2022-10-23T08:44:28.541Z,119
2022-10-23T09:14:33.299Z,115
2022-10-23T09:44:39.143Z,113
2022-10-23T10:14:42.973Z,108
2022-10-23T10:44:46.518Z,116
2022-10-23T11:14:49.685Z,108
2022-10-23T11:44:47.976Z,106
2022-10-23T12:14:49.959Z,107
2022-10-23T12:44:53.695Z,121
2022-10-23T13:14:56.841Z,105
2022-10-23T13:44:58.526Z,100
2022-10-23T14:14:56.978Z,98
2022-10-23T14:44:53.760Z,101
2022-10-23T15:14:56.321Z,155
2022-10-23T15:44:54.917Z,143
2022-10-23T16:14:52.271Z,136
2022-10-23T16:44:50.642Z,139
2022-10-23T17:14:53.771Z,150
2022-10-23T17:44:59.077Z,135
2022-10-23T18:16:08.776Z,135
2022-10-23T18:46:06.033Z,131
2022-10-23T19:16:03.386Z,158
2022-10-23T19:46:07.984Z,147
2022-10-23T20:17:26.813Z,142
2022-10-23T20:47:21.113Z,145
2022-10-23T21:17:18.922Z,142
2022-10-23T21:47:17.390Z,140
2022-10-23T22:17:24.552Z,136
2022-10-23T22:47:23.007Z,137
2022-10-23T23:17:22.936Z,136
2022-10-23T23:47:26.294Z,136
